sensor_id;sensor_type;location;lat;lon;timestamp;temperature;humidity
48579;DHT22;34357;51.948;6.132;2023-05-07T00:01:46;15.30;85.20
48579;DHT22;34357;51.948;6.132;2023-05-07T00:04:11;15.30;85.40
48579;DHT22;34357;51.948;6.132;2023-05-07T00:06:39;15.30;85.40
48579;DHT22;34357;51.948;6.132;2023-05-07T00:09:06;15.30;85.20
48579;DHT22;34357;51.948;6.132;2023-05-07T00:11:32;15.30;85.20
48579;DHT22;34357;51.948;6.132;2023-05-07T00:13:58;15.30;85.40
48579;DHT22;34357;51.948;6.132;2023-05-07T00:16:23;15.20;85.40
48579;DHT22;34357;51.948;6.132;2023-05-07T00:18:49;15.20;85.50
48579;DHT22;34357;51.948;6.132;2023-05-07T00:21:15;15.30;85.50
48579;DHT22;34357;51.948;6.132;2023-05-07T00:23:41;15.30;85.10
48579;DHT22;34357;51.948;6.132;2023-05-07T00:26:07;15.30;85.10
48579;DHT22;34357;51.948;6.132;2023-05-07T00:28:33;15.30;85.30
48579;DHT22;34357;51.948;6.132;2023-05-07T00:30:58;15.30;85.40
48579;DHT22;34357;51.948;6.132;2023-05-07T00:33:24;15.20;85.50
48579;DHT22;34357;51.948;6.132;2023-05-07T00:35:52;15.20;85.70
48579;DHT22;34357;51.948;6.132;2023-05-07T00:38:19;15.20;85.80
48579;DHT22;34357;51.948;6.132;2023-05-07T00:40:45;15.20;86.00
48579;DHT22;34357;51.948;6.132;2023-05-07T00:43:11;15.20;86.10
48579;DHT22;34357;51.948;6.132;2023-05-07T00:45:38;15.20;86.10
48579;DHT22;34357;51.948;6.132;2023-05-07T00:48:04;15.20;86.10
48579;DHT22;34357;51.948;6.132;2023-05-07T00:50:31;15.10;86.10
48579;DHT22;34357;51.948;6.132;2023-05-07T00:52:57;15.10;86.20
48579;DHT22;34357;51.948;6.132;2023-05-07T00:55:24;15.10;86.30
48579;DHT22;34357;51.948;6.132;2023-05-07T00:57:51;15.00;86.50
48579;DHT22;34357;51.948;6.132;2023-05-07T01:00:17;14.90;86.80
48579;DHT22;34357;51.948;6.132;2023-05-07T01:02:44;14.90;86.80
48579;DHT22;34357;51.948;6.132;2023-05-07T01:05:14;14.90;87.00
48579;DHT22;34357;51.948;6.132;2023-05-07T01:07:42;14.90;87.00
48579;DHT22;34357;51.948;6.132;2023-05-07T01:10:09;14.80;86.90
48579;DHT22;34357;51.948;6.132;2023-05-07T01:12:37;14.80;86.90
48579;DHT22;34357;51.948;6.132;2023-05-07T01:15:04;14.70;87.00
48579;DHT22;34357;51.948;6.132;2023-05-07T01:17:37;14.70;86.90
48579;DHT22;34357;51.948;6.132;2023-05-07T01:20:05;14.60;87.00
48579;DHT22;34357;51.948;6.132;2023-05-07T01:22:37;14.60;87.00
48579;DHT22;34357;51.948;6.132;2023-05-07T01:25:04;14.50;87.00
48579;DHT22;34357;51.948;6.132;2023-05-07T01:27:31;14.50;87.00
48579;DHT22;34357;51.948;6.132;2023-05-07T01:29:59;14.50;86.90
48579;DHT22;34357;51.948;6.132;2023-05-07T01:32:57;14.50;86.80
48579;DHT22;34357;51.948;6.132;2023-05-07T01:35:37;14.60;86.80
48579;DHT22;34357;51.948;6.132;2023-05-07T01:38:04;14.60;86.70
48579;DHT22;34357;51.948;6.132;2023-05-07T01:40:31;14.60;86.60
48579;DHT22;34357;51.948;6.132;2023-05-07T01:42:57;14.60;86.60
48579;DHT22;34357;51.948;6.132;2023-05-07T01:45:25;14.50;86.50
48579;DHT22;34357;51.948;6.132;2023-05-07T01:47:51;14.60;86.50
48579;DHT22;34357;51.948;6.132;2023-05-07T01:50:19;14.60;86.50
48579;DHT22;34357;51.948;6.132;2023-05-07T01:52:47;14.60;86.20
48579;DHT22;34357;51.948;6.132;2023-05-07T01:55:12;14.60;86.00
48579;DHT22;34357;51.948;6.132;2023-05-07T01:57:38;14.60;86.00
48579;DHT22;34357;51.948;6.132;2023-05-07T02:00:05;14.60;86.00
48579;DHT22;34357;51.948;6.132;2023-05-07T02:02:41;14.60;86.00
48579;DHT22;34357;51.948;6.132;2023-05-07T02:05:13;14.50;86.20
48579;DHT22;34357;51.948;6.132;2023-05-07T02:07:40;14.50;86.20
48579;DHT22;34357;51.948;6.132;2023-05-07T02:10:07;14.50;86.30
48579;DHT22;34357;51.948;6.132;2023-05-07T02:12:32;14.50;86.30
48579;DHT22;34357;51.948;6.132;2023-05-07T02:14:58;14.50;86.40
48579;DHT22;34357;51.948;6.132;2023-05-07T02:17:24;14.40;86.50
48579;DHT22;34357;51.948;6.132;2023-05-07T02:19:51;14.40;86.40
48579;DHT22;34357;51.948;6.132;2023-05-07T02:22:16;14.40;86.50
48579;DHT22;34357;51.948;6.132;2023-05-07T02:24:42;14.50;86.40
48579;DHT22;34357;51.948;6.132;2023-05-07T02:27:08;14.40;86.40
48579;DHT22;34357;51.948;6.132;2023-05-07T02:29:34;14.40;86.60
48579;DHT22;34357;51.948;6.132;2023-05-07T02:31:59;14.50;86.60
48579;DHT22;34357;51.948;6.132;2023-05-07T02:34:25;14.50;86.40
48579;DHT22;34357;51.948;6.132;2023-05-07T02:36:51;14.40;86.50
48579;DHT22;34357;51.948;6.132;2023-05-07T02:39:20;14.40;86.60
48579;DHT22;34357;51.948;6.132;2023-05-07T02:41:46;14.40;86.50
48579;DHT22;34357;51.948;6.132;2023-05-07T02:44:12;14.40;86.70
48579;DHT22;34357;51.948;6.132;2023-05-07T02:46:38;14.40;86.70
48579;DHT22;34357;51.948;6.132;2023-05-07T02:49:08;14.40;86.80
48579;DHT22;34357;51.948;6.132;2023-05-07T02:51:34;14.40;86.80
48579;DHT22;34357;51.948;6.132;2023-05-07T02:54:02;14.40;86.90
48579;DHT22;34357;51.948;6.132;2023-05-07T02:56:29;14.30;86.90
48579;DHT22;34357;51.948;6.132;2023-05-07T02:58:56;14.30;87.00
48579;DHT22;34357;51.948;6.132;2023-05-07T03:01:24;14.30;87.20
48579;DHT22;34357;51.948;6.132;2023-05-07T03:03:58;14.20;87.40
48579;DHT22;34357;51.948;6.132;2023-05-07T03:06:24;14.30;87.40
48579;DHT22;34357;51.948;6.132;2023-05-07T03:08:50;14.20;87.40
48579;DHT22;34357;51.948;6.132;2023-05-07T03:11:16;14.10;87.50
48579;DHT22;34357;51.948;6.132;2023-05-07T03:13:41;14.20;87.60
48579;DHT22;34357;51.948;6.132;2023-05-07T03:16:07;14.20;87.70
48579;DHT22;34357;51.948;6.132;2023-05-07T03:18:33;14.20;87.80
48579;DHT22;34357;51.948;6.132;2023-05-07T03:20:58;14.20;87.80
48579;DHT22;34357;51.948;6.132;2023-05-07T03:23:24;14.20;87.90
48579;DHT22;34357;51.948;6.132;2023-05-07T03:25:50;14.20;88.00
48579;DHT22;34357;51.948;6.132;2023-05-07T03:28:16;14.20;88.10
48579;DHT22;34357;51.948;6.132;2023-05-07T03:30:48;14.20;88.20
48579;DHT22;34357;51.948;6.132;2023-05-07T03:33:13;14.10;88.30
48579;DHT22;34357;51.948;6.132;2023-05-07T03:35:40;14.20;88.40
48579;DHT22;34357;51.948;6.132;2023-05-07T03:38:06;14.10;88.50
48579;DHT22;34357;51.948;6.132;2023-05-07T03:40:34;14.10;88.60
48579;DHT22;34357;51.948;6.132;2023-05-07T03:43:01;14.10;88.80
48579;DHT22;34357;51.948;6.132;2023-05-07T03:45:28;14.10;88.90
48579;DHT22;34357;51.948;6.132;2023-05-07T03:48:04;14.10;88.90
48579;DHT22;34357;51.948;6.132;2023-05-07T03:50:31;14.10;89.00
48579;DHT22;34357;51.948;6.132;2023-05-07T03:52:56;14.10;89.10
48579;DHT22;34357;51.948;6.132;2023-05-07T03:55:23;14.10;89.10
48579;DHT22;34357;51.948;6.132;2023-05-07T03:57:53;14.10;89.10
48579;DHT22;34357;51.948;6.132;2023-05-07T04:00:20;14.00;89.20
48579;DHT22;34357;51.948;6.132;2023-05-07T04:02:46;14.00;89.30
48579;DHT22;34357;51.948;6.132;2023-05-07T04:05:14;14.00;89.50
48579;DHT22;34357;51.948;6.132;2023-05-07T04:07:42;14.00;89.40
48579;DHT22;34357;51.948;6.132;2023-05-07T04:10:10;14.00;89.40
48579;DHT22;34357;51.948;6.132;2023-05-07T04:12:38;14.00;89.40
48579;DHT22;34357;51.948;6.132;2023-05-07T04:15:06;14.00;89.50
48579;DHT22;34357;51.948;6.132;2023-05-07T04:17:32;14.00;89.60
48579;DHT22;34357;51.948;6.132;2023-05-07T04:19:59;14.00;89.70
48579;DHT22;34357;51.948;6.132;2023-05-07T04:22:25;14.00;89.60
48579;DHT22;34357;51.948;6.132;2023-05-07T04:24:51;14.00;89.80
48579;DHT22;34357;51.948;6.132;2023-05-07T04:27:17;14.10;89.70
48579;DHT22;34357;51.948;6.132;2023-05-07T04:29:43;14.10;89.60
48579;DHT22;34357;51.948;6.132;2023-05-07T04:32:13;14.10;89.50
48579;DHT22;34357;51.948;6.132;2023-05-07T04:34:39;14.10;89.50
48579;DHT22;34357;51.948;6.132;2023-05-07T04:37:06;14.10;89.60
48579;DHT22;34357;51.948;6.132;2023-05-07T04:39:32;14.20;89.50
48579;DHT22;34357;51.948;6.132;2023-05-07T04:41:58;14.20;89.50
48579;DHT22;34357;51.948;6.132;2023-05-07T04:44:24;14.20;89.30
48579;DHT22;34357;51.948;6.132;2023-05-07T04:46:50;14.20;89.30
48579;DHT22;34357;51.948;6.132;2023-05-07T04:49:16;14.30;89.40
48579;DHT22;34357;51.948;6.132;2023-05-07T04:51:42;14.30;89.30
48579;DHT22;34357;51.948;6.132;2023-05-07T04:54:09;14.30;89.20
48579;DHT22;34357;51.948;6.132;2023-05-07T04:56:36;14.30;89.20
48579;DHT22;34357;51.948;6.132;2023-05-07T04:59:02;14.30;89.20
48579;DHT22;34357;51.948;6.132;2023-05-07T05:01:29;14.30;89.20
48579;DHT22;34357;51.948;6.132;2023-05-07T05:03:55;14.30;89.10
48579;DHT22;34357;51.948;6.132;2023-05-07T05:06:21;14.40;89.10
48579;DHT22;34357;51.948;6.132;2023-05-07T05:08:46;14.30;89.00
48579;DHT22;34357;51.948;6.132;2023-05-07T05:11:12;14.30;89.10
48579;DHT22;34357;51.948;6.132;2023-05-07T05:13:38;14.30;89.20
48579;DHT22;34357;51.948;6.132;2023-05-07T05:16:10;14.30;89.30
48579;DHT22;34357;51.948;6.132;2023-05-07T05:18:37;14.30;89.40
48579;DHT22;34357;51.948;6.132;2023-05-07T05:21:03;14.30;89.40
48579;DHT22;34357;51.948;6.132;2023-05-07T05:23:30;14.30;89.50
48579;DHT22;34357;51.948;6.132;2023-05-07T05:25:57;14.40;89.50
48579;DHT22;34357;51.948;6.132;2023-05-07T05:28:25;14.30;89.50
48579;DHT22;34357;51.948;6.132;2023-05-07T05:30:50;14.40;89.60
48579;DHT22;34357;51.948;6.132;2023-05-07T05:33:17;14.40;89.50
48579;DHT22;34357;51.948;6.132;2023-05-07T05:35:43;14.40;89.70
48579;DHT22;34357;51.948;6.132;2023-05-07T05:38:11;14.40;89.80
48579;DHT22;34357;51.948;6.132;2023-05-07T05:40:38;14.40;89.90
48579;DHT22;34357;51.948;6.132;2023-05-07T05:43:03;14.40;90.10
48579;DHT22;34357;51.948;6.132;2023-05-07T05:45:30;14.40;90.10
48579;DHT22;34357;51.948;6.132;2023-05-07T05:47:56;14.40;90.10
48579;DHT22;34357;51.948;6.132;2023-05-07T05:50:23;14.50;90.20
48579;DHT22;34357;51.948;6.132;2023-05-07T05:52:49;14.50;90.10
48579;DHT22;34357;51.948;6.132;2023-05-07T05:55:16;14.50;89.90
48579;DHT22;34357;51.948;6.132;2023-05-07T05:57:42;14.50;90.00
48579;DHT22;34357;51.948;6.132;2023-05-07T06:00:10;14.60;90.00
48579;DHT22;34357;51.948;6.132;2023-05-07T06:02:44;14.60;89.90
48579;DHT22;34357;51.948;6.132;2023-05-07T06:05:12;14.70;89.80
48579;DHT22;34357;51.948;6.132;2023-05-07T06:07:39;14.70;89.60
48579;DHT22;34357;51.948;6.132;2023-05-07T06:10:05;14.70;89.70
48579;DHT22;34357;51.948;6.132;2023-05-07T06:12:32;14.80;89.60
48579;DHT22;34357;51.948;6.132;2023-05-07T06:14:57;14.70;89.50
48579;DHT22;34357;51.948;6.132;2023-05-07T06:17:23;14.80;89.40
48579;DHT22;34357;51.948;6.132;2023-05-07T06:19:50;14.80;89.20
48579;DHT22;34357;51.948;6.132;2023-05-07T06:22:18;14.80;89.30
48579;DHT22;34357;51.948;6.132;2023-05-07T06:24:44;14.90;89.20
48579;DHT22;34357;51.948;6.132;2023-05-07T06:27:10;14.90;89.10
48579;DHT22;34357;51.948;6.132;2023-05-07T06:29:36;14.90;89.20
48579;DHT22;34357;51.948;6.132;2023-05-07T06:32:09;14.90;89.00
48579;DHT22;34357;51.948;6.132;2023-05-07T06:34:35;14.90;89.00
48579;DHT22;34357;51.948;6.132;2023-05-07T06:37:01;14.90;89.00
48579;DHT22;34357;51.948;6.132;2023-05-07T06:39:38;14.90;89.00
48579;DHT22;34357;51.948;6.132;2023-05-07T06:42:04;14.90;88.70
48579;DHT22;34357;51.948;6.132;2023-05-07T06:44:31;15.00;88.70
48579;DHT22;34357;51.948;6.132;2023-05-07T06:47:12;15.00;88.70
48579;DHT22;34357;51.948;6.132;2023-05-07T06:49:39;15.10;88.60
48579;DHT22;34357;51.948;6.132;2023-05-07T06:52:05;15.20;88.60
48579;DHT22;34357;51.948;6.132;2023-05-07T06:54:31;15.20;88.40
48579;DHT22;34357;51.948;6.132;2023-05-07T06:56:57;15.20;88.50
48579;DHT22;34357;51.948;6.132;2023-05-07T06:59:25;15.20;88.10
48579;DHT22;34357;51.948;6.132;2023-05-07T07:01:51;15.30;88.20
48579;DHT22;34357;51.948;6.132;2023-05-07T07:04:17;15.30;88.30
48579;DHT22;34357;51.948;6.132;2023-05-07T07:06:48;15.40;88.10
48579;DHT22;34357;51.948;6.132;2023-05-07T07:09:14;15.40;87.90
48579;DHT22;34357;51.948;6.132;2023-05-07T07:11:40;15.40;87.80
48579;DHT22;34357;51.948;6.132;2023-05-07T07:14:07;15.50;87.20
48579;DHT22;34357;51.948;6.132;2023-05-07T07:16:38;15.50;87.10
48579;DHT22;34357;51.948;6.132;2023-05-07T07:19:04;15.70;87.10
48579;DHT22;34357;51.948;6.132;2023-05-07T07:21:31;15.80;87.00
48579;DHT22;34357;51.948;6.132;2023-05-07T07:23:58;15.80;86.50
48579;DHT22;34357;51.948;6.132;2023-05-07T07:26:24;15.90;86.50
48579;DHT22;34357;51.948;6.132;2023-05-07T07:28:50;16.10;86.00
48579;DHT22;34357;51.948;6.132;2023-05-07T07:31:19;16.10;85.60
48579;DHT22;34357;51.948;6.132;2023-05-07T07:33:47;16.20;85.10
48579;DHT22;34357;51.948;6.132;2023-05-07T07:36:15;16.30;85.10
48579;DHT22;34357;51.948;6.132;2023-05-07T07:38:42;16.40;84.60
48579;DHT22;34357;51.948;6.132;2023-05-07T07:41:08;16.40;84.50
48579;DHT22;34357;51.948;6.132;2023-05-07T07:43:35;16.40;84.50
48579;DHT22;34357;51.948;6.132;2023-05-07T07:46:01;16.60;84.30
48579;DHT22;34357;51.948;6.132;2023-05-07T07:48:27;16.60;83.90
48579;DHT22;34357;51.948;6.132;2023-05-07T07:50:54;16.70;84.00
48579;DHT22;34357;51.948;6.132;2023-05-07T07:53:21;16.60;83.50
48579;DHT22;34357;51.948;6.132;2023-05-07T07:55:47;16.60;83.10
48579;DHT22;34357;51.948;6.132;2023-05-07T07:58:16;16.60;83.50
48579;DHT22;34357;51.948;6.132;2023-05-07T08:00:42;16.60;83.50
48579;DHT22;34357;51.948;6.132;2023-05-07T08:03:11;16.70;83.10
48579;DHT22;34357;51.948;6.132;2023-05-07T08:05:40;16.80;83.30
48579;DHT22;34357;51.948;6.132;2023-05-07T08:08:06;16.90;82.50
48579;DHT22;34357;51.948;6.132;2023-05-07T08:10:34;16.90;82.10
48579;DHT22;34357;51.948;6.132;2023-05-07T08:13:08;17.10;82.50
48579;DHT22;34357;51.948;6.132;2023-05-07T08:15:36;17.40;82.00
48579;DHT22;34357;51.948;6.132;2023-05-07T08:18:02;17.70;80.50
48579;DHT22;34357;51.948;6.132;2023-05-07T08:20:29;17.80;80.00
48579;DHT22;34357;51.948;6.132;2023-05-07T08:22:56;17.90;80.00
48579;DHT22;34357;51.948;6.132;2023-05-07T08:25:23;18.20;79.50
48579;DHT22;34357;51.948;6.132;2023-05-07T08:27:48;18.50;78.80
48579;DHT22;34357;51.948;6.132;2023-05-07T08:30:15;18.70;78.70
48579;DHT22;34357;51.948;6.132;2023-05-07T08:32:42;18.90;77.60
48579;DHT22;34357;51.948;6.132;2023-05-07T08:35:08;18.90;76.40
48579;DHT22;34357;51.948;6.132;2023-05-07T08:37:34;18.80;75.70
48579;DHT22;34357;51.948;6.132;2023-05-07T08:40:00;18.90;76.30
48579;DHT22;34357;51.948;6.132;2023-05-07T08:42:31;19.20;75.70
48579;DHT22;34357;51.948;6.132;2023-05-07T08:45:02;19.20;74.70
48579;DHT22;34357;51.948;6.132;2023-05-07T08:47:38;19.70;74.40
48579;DHT22;34357;51.948;6.132;2023-05-07T08:50:06;19.90;72.30
48579;DHT22;34357;51.948;6.132;2023-05-07T08:52:32;19.90;72.60
48579;DHT22;34357;51.948;6.132;2023-05-07T08:54:59;19.80;72.80
48579;DHT22;34357;51.948;6.132;2023-05-07T08:57:25;19.90;73.50
48579;DHT22;34357;51.948;6.132;2023-05-07T08:59:52;20.10;71.40
48579;DHT22;34357;51.948;6.132;2023-05-07T09:02:18;20.10;71.70
48579;DHT22;34357;51.948;6.132;2023-05-07T09:04:44;20.40;71.50
48579;DHT22;34357;51.948;6.132;2023-05-07T09:07:10;20.60;70.80
48579;DHT22;34357;51.948;6.132;2023-05-07T09:09:40;21.00;71.30
48579;DHT22;34357;51.948;6.132;2023-05-07T09:12:07;21.20;69.50
48579;DHT22;34357;51.948;6.132;2023-05-07T09:14:35;21.10;68.80
48579;DHT22;34357;51.948;6.132;2023-05-07T09:17:02;21.30;68.70
48579;DHT22;34357;51.948;6.132;2023-05-07T09:19:30;21.40;66.00
48579;DHT22;34357;51.948;6.132;2023-05-07T09:22:00;21.30;66.70
48579;DHT22;34357;51.948;6.132;2023-05-07T09:24:26;21.60;67.00
48579;DHT22;34357;51.948;6.132;2023-05-07T09:26:54;21.60;67.10
48579;DHT22;34357;51.948;6.132;2023-05-07T09:29:21;21.60;67.70
48579;DHT22;34357;51.948;6.132;2023-05-07T09:31:46;21.60;67.60
48579;DHT22;34357;51.948;6.132;2023-05-07T09:34:14;21.90;66.30
48579;DHT22;34357;51.948;6.132;2023-05-07T09:36:44;22.00;65.20
48579;DHT22;34357;51.948;6.132;2023-05-07T09:39:11;21.90;66.00
48579;DHT22;34357;51.948;6.132;2023-05-07T09:41:44;22.00;66.40
48579;DHT22;34357;51.948;6.132;2023-05-07T09:44:15;22.00;65.10
48579;DHT22;34357;51.948;6.132;2023-05-07T09:46:50;22.10;63.60
48579;DHT22;34357;51.948;6.132;2023-05-07T09:49:23;22.00;65.80
48579;DHT22;34357;51.948;6.132;2023-05-07T09:51:53;22.20;65.40
48579;DHT22;34357;51.948;6.132;2023-05-07T09:54:23;22.50;64.90
48579;DHT22;34357;51.948;6.132;2023-05-07T09:56:52;22.70;62.30
48579;DHT22;34357;51.948;6.132;2023-05-07T09:59:22;22.70;63.40
48579;DHT22;34357;51.948;6.132;2023-05-07T10:01:49;23.00;63.10
48579;DHT22;34357;51.948;6.132;2023-05-07T10:04:16;23.20;62.90
48579;DHT22;34357;51.948;6.132;2023-05-07T10:06:44;23.10;61.70
48579;DHT22;34357;51.948;6.132;2023-05-07T10:09:11;22.70;62.20
48579;DHT22;34357;51.948;6.132;2023-05-07T10:11:37;22.80;61.10
48579;DHT22;34357;51.948;6.132;2023-05-07T10:14:04;23.00;60.70
48579;DHT22;34357;51.948;6.132;2023-05-07T10:16:34;23.20;59.20
48579;DHT22;34357;51.948;6.132;2023-05-07T10:19:03;23.50;59.00
48579;DHT22;34357;51.948;6.132;2023-05-07T10:21:30;23.80;57.10
48579;DHT22;34357;51.948;6.132;2023-05-07T10:24:26;23.80;58.20
48579;DHT22;34357;51.948;6.132;2023-05-07T10:26:53;23.70;57.90
48579;DHT22;34357;51.948;6.132;2023-05-07T10:34:26;23.30;57.10
48579;DHT22;34357;51.948;6.132;2023-05-07T10:36:55;23.40;58.30
48579;DHT22;34357;51.948;6.132;2023-05-07T10:39:22;23.40;55.60
48579;DHT22;34357;51.948;6.132;2023-05-07T10:41:49;23.90;58.00
48579;DHT22;34357;51.948;6.132;2023-05-07T10:44:29;23.90;54.80
48579;DHT22;34357;51.948;6.132;2023-05-07T10:47:09;23.60;57.00
48579;DHT22;34357;51.948;6.132;2023-05-07T10:52:34;23.70;55.90
48579;DHT22;34357;51.948;6.132;2023-05-07T11:00:49;24.40;57.10
48579;DHT22;34357;51.948;6.132;2023-05-07T11:03:25;24.00;55.70
48579;DHT22;34357;51.948;6.132;2023-05-07T11:06:15;24.00;55.90
48579;DHT22;34357;51.948;6.132;2023-05-07T11:08:59;24.20;55.40
48579;DHT22;34357;51.948;6.132;2023-05-07T11:11:48;24.30;54.70
48579;DHT22;34357;51.948;6.132;2023-05-07T11:14:42;23.90;56.90
48579;DHT22;34357;51.948;6.132;2023-05-07T11:17:12;23.50;56.90
48579;DHT22;34357;51.948;6.132;2023-05-07T11:19:54;23.80;56.90
48579;DHT22;34357;51.948;6.132;2023-05-07T11:22:44;23.70;56.60
48579;DHT22;34357;51.948;6.132;2023-05-07T11:25:32;23.60;57.10
48579;DHT22;34357;51.948;6.132;2023-05-07T11:28:08;23.90;57.40
48579;DHT22;34357;51.948;6.132;2023-05-07T11:30:42;24.20;57.00
48579;DHT22;34357;51.948;6.132;2023-05-07T11:33:11;24.20;56.20
48579;DHT22;34357;51.948;6.132;2023-05-07T11:35:39;24.00;57.20
48579;DHT22;34357;51.948;6.132;2023-05-07T11:38:08;24.40;57.70
48579;DHT22;34357;51.948;6.132;2023-05-07T11:40:35;24.20;56.80
48579;DHT22;34357;51.948;6.132;2023-05-07T11:43:13;24.40;55.80
48579;DHT22;34357;51.948;6.132;2023-05-07T11:45:39;24.10;57.00
48579;DHT22;34357;51.948;6.132;2023-05-07T11:48:05;24.00;57.60
48579;DHT22;34357;51.948;6.132;2023-05-07T11:50:31;23.90;58.70
48579;DHT22;34357;51.948;6.132;2023-05-07T11:52:56;23.90;58.50
48579;DHT22;34357;51.948;6.132;2023-05-07T11:55:24;23.80;57.70
48579;DHT22;34357;51.948;6.132;2023-05-07T11:57:51;23.80;57.80
48579;DHT22;34357;51.948;6.132;2023-05-07T12:00:17;23.90;58.20
48579;DHT22;34357;51.948;6.132;2023-05-07T12:02:45;24.00;57.70
48579;DHT22;34357;51.948;6.132;2023-05-07T12:05:11;24.00;57.30
48579;DHT22;34357;51.948;6.132;2023-05-07T12:07:37;24.00;57.20
48579;DHT22;34357;51.948;6.132;2023-05-07T12:10:06;24.00;56.90
48579;DHT22;34357;51.948;6.132;2023-05-07T12:12:38;24.20;57.20
48579;DHT22;34357;51.948;6.132;2023-05-07T12:15:05;24.30;56.60
48579;DHT22;34357;51.948;6.132;2023-05-07T12:17:31;24.30;56.40
48579;DHT22;34357;51.948;6.132;2023-05-07T12:19:57;24.30;57.50
48579;DHT22;34357;51.948;6.132;2023-05-07T12:22:23;24.60;55.80
48579;DHT22;34357;51.948;6.132;2023-05-07T12:24:56;24.60;55.30
48579;DHT22;34357;51.948;6.132;2023-05-07T12:27:22;24.40;54.90
48579;DHT22;34357;51.948;6.132;2023-05-07T12:29:49;23.90;56.70
48579;DHT22;34357;51.948;6.132;2023-05-07T12:32:19;23.80;57.60
48579;DHT22;34357;51.948;6.132;2023-05-07T12:34:46;23.80;57.50
48579;DHT22;34357;51.948;6.132;2023-05-07T12:37:12;23.80;57.00
48579;DHT22;34357;51.948;6.132;2023-05-07T12:39:43;23.80;57.80
48579;DHT22;34357;51.948;6.132;2023-05-07T12:42:20;23.70;57.00
48579;DHT22;34357;51.948;6.132;2023-05-07T12:44:51;23.60;57.70
48579;DHT22;34357;51.948;6.132;2023-05-07T12:47:17;23.40;57.70
48579;DHT22;34357;51.948;6.132;2023-05-07T12:49:43;23.20;58.60
48579;DHT22;34357;51.948;6.132;2023-05-07T12:52:11;23.00;59.20
48579;DHT22;34357;51.948;6.132;2023-05-07T12:54:38;22.90;60.20
48579;DHT22;34357;51.948;6.132;2023-05-07T12:57:10;22.70;59.60
48579;DHT22;34357;51.948;6.132;2023-05-07T12:59:37;22.60;59.70
48579;DHT22;34357;51.948;6.132;2023-05-07T13:02:04;22.40;60.90
48579;DHT22;34357;51.948;6.132;2023-05-07T13:04:32;22.20;61.10
48579;DHT22;34357;51.948;6.132;2023-05-07T13:06:59;22.00;62.30
48579;DHT22;34357;51.948;6.132;2023-05-07T13:09:25;21.90;61.90
48579;DHT22;34357;51.948;6.132;2023-05-07T13:11:51;21.90;64.40
48579;DHT22;34357;51.948;6.132;2023-05-07T13:14:17;21.90;66.10
48579;DHT22;34357;51.948;6.132;2023-05-07T13:16:43;21.70;67.70
48579;DHT22;34357;51.948;6.132;2023-05-07T13:19:09;21.60;69.00
48579;DHT22;34357;51.948;6.132;2023-05-07T13:21:35;21.40;68.70
48579;DHT22;34357;51.948;6.132;2023-05-07T13:24:01;21.40;67.60
48579;DHT22;34357;51.948;6.132;2023-05-07T13:26:27;21.30;68.00
48579;DHT22;34357;51.948;6.132;2023-05-07T13:28:53;21.20;68.40
48579;DHT22;34357;51.948;6.132;2023-05-07T13:31:19;21.20;69.60
48579;DHT22;34357;51.948;6.132;2023-05-07T13:33:46;21.10;70.40
48579;DHT22;34357;51.948;6.132;2023-05-07T13:36:12;21.00;71.10
48579;DHT22;34357;51.948;6.132;2023-05-07T13:38:39;20.80;71.80
48579;DHT22;34357;51.948;6.132;2023-05-07T13:41:05;20.70;73.00
48579;DHT22;34357;51.948;6.132;2023-05-07T13:43:30;20.70;73.60
48579;DHT22;34357;51.948;6.132;2023-05-07T13:45:57;20.70;73.50
48579;DHT22;34357;51.948;6.132;2023-05-07T13:48:23;20.50;72.30
48579;DHT22;34357;51.948;6.132;2023-05-07T13:50:49;20.40;72.70
48579;DHT22;34357;51.948;6.132;2023-05-07T13:53:15;20.20;73.60
48579;DHT22;34357;51.948;6.132;2023-05-07T13:55:44;20.30;73.90
48579;DHT22;34357;51.948;6.132;2023-05-07T13:58:09;20.20;73.90
48579;DHT22;34357;51.948;6.132;2023-05-07T14:00:35;20.10;74.00
48579;DHT22;34357;51.948;6.132;2023-05-07T14:03:01;20.10;73.70
48579;DHT22;34357;51.948;6.132;2023-05-07T14:05:27;20.20;73.80
48579;DHT22;34357;51.948;6.132;2023-05-07T14:07:54;20.20;73.30
48579;DHT22;34357;51.948;6.132;2023-05-07T14:10:20;20.10;72.60
48579;DHT22;34357;51.948;6.132;2023-05-07T14:12:46;20.00;73.40
48579;DHT22;34357;51.948;6.132;2023-05-07T14:15:13;19.90;72.10
48579;DHT22;34357;51.948;6.132;2023-05-07T14:17:39;19.80;72.00
48579;DHT22;34357;51.948;6.132;2023-05-07T14:20:05;19.70;70.80
48579;DHT22;34357;51.948;6.132;2023-05-07T14:22:32;19.70;71.10
48579;DHT22;34357;51.948;6.132;2023-05-07T14:24:58;19.70;72.10
48579;DHT22;34357;51.948;6.132;2023-05-07T14:27:24;19.50;75.40
48579;DHT22;34357;51.948;6.132;2023-05-07T14:29:50;19.20;77.30
48579;DHT22;34357;51.948;6.132;2023-05-07T14:32:20;19.00;77.50
48579;DHT22;34357;51.948;6.132;2023-05-07T14:34:46;18.90;77.70
48579;DHT22;34357;51.948;6.132;2023-05-07T14:37:12;18.80;78.30
48579;DHT22;34357;51.948;6.132;2023-05-07T14:39:38;18.80;78.60
48579;DHT22;34357;51.948;6.132;2023-05-07T14:42:04;18.80;79.00
48579;DHT22;34357;51.948;6.132;2023-05-07T14:44:30;18.80;78.60
48579;DHT22;34357;51.948;6.132;2023-05-07T14:46:56;18.90;79.10
48579;DHT22;34357;51.948;6.132;2023-05-07T14:49:22;18.90;78.50
48579;DHT22;34357;51.948;6.132;2023-05-07T14:51:49;18.80;76.60
48579;DHT22;34357;51.948;6.132;2023-05-07T14:54:15;18.70;75.20
48579;DHT22;34357;51.948;6.132;2023-05-07T14:56:42;18.70;75.30
48579;DHT22;34357;51.948;6.132;2023-05-07T14:59:08;18.70;76.30
48579;DHT22;34357;51.948;6.132;2023-05-07T15:01:35;18.70;77.40
48579;DHT22;34357;51.948;6.132;2023-05-07T15:04:03;18.60;77.10
48579;DHT22;34357;51.948;6.132;2023-05-07T15:06:29;18.70;76.60
48579;DHT22;34357;51.948;6.132;2023-05-07T15:08:56;18.60;74.00
48579;DHT22;34357;51.948;6.132;2023-05-07T15:11:22;18.60;72.70
48579;DHT22;34357;51.948;6.132;2023-05-07T15:13:48;18.60;70.60
48579;DHT22;34357;51.948;6.132;2023-05-07T15:16:14;18.70;70.30
48579;DHT22;34357;51.948;6.132;2023-05-07T15:18:40;18.60;69.90
48579;DHT22;34357;51.948;6.132;2023-05-07T15:21:06;18.60;69.70
48579;DHT22;34357;51.948;6.132;2023-05-07T15:23:32;18.60;69.90
48579;DHT22;34357;51.948;6.132;2023-05-07T15:25:58;18.60;68.50
48579;DHT22;34357;51.948;6.132;2023-05-07T15:28:24;18.70;68.80
48579;DHT22;34357;51.948;6.132;2023-05-07T15:30:52;18.70;67.60
48579;DHT22;34357;51.948;6.132;2023-05-07T15:33:18;18.70;68.90
48579;DHT22;34357;51.948;6.132;2023-05-07T15:35:44;18.70;69.20
48579;DHT22;34357;51.948;6.132;2023-05-07T15:38:09;18.60;70.20
48579;DHT22;34357;51.948;6.132;2023-05-07T15:40:36;18.60;71.10
48579;DHT22;34357;51.948;6.132;2023-05-07T15:43:07;18.60;71.40
48579;DHT22;34357;51.948;6.132;2023-05-07T15:45:41;18.70;71.50
48579;DHT22;34357;51.948;6.132;2023-05-07T15:48:08;18.60;71.40